Stations météo

réclame
Mon MeteoGroup
Sint Katelijne-Waver, Belgique (6439): Température de l'air & dewpoint: 18.11.2017 17:00:00 - 24.11.2017 17:00:00 (CET)Sint Katelijne-Waver, Belgique (6439): Vitesse du vent & gusts: 18.11.2017 17:00:00 - 24.11.2017 17:00:00 (CET)Sint Katelijne-Waver, Belgique (6439): Direction du vent: 18.11.2017 17:00:00 - 24.11.2017 17:00:00 (CET)Sint Katelijne-Waver, Belgique (6439): reduced air pressure: 18.11.2017 17:00:00 - 24.11.2017 17:00:00 (CET)Sint Katelijne-Waver, Belgique (6439): Ensoleillement: 18.11.2017 17:00:00 - 24.11.2017 17:00:00 (CET)Sint Katelijne-Waver, Belgique (6439): Quantités de précipitations: 18.11.2017 17:00:00 - 24.11.2017 17:00:00 (CET)
Date & Time tt [°C] td [°C] ff [km/h] ff [knt] fx [km/h] fx [knt] dd ppp [hPa] sd [min] rr [mm]
24.11.2017 17:00:00 - - - - - - - - - -
24.11.2017 16:00:00 9,4 5,0 4 2 10 5 WSW 1012,4 0 0,0
24.11.2017 15:00:00 9,7 4,5 8 4 22 12 WSW 1012,0 35 0,0
24.11.2017 14:00:00 10,0 5,1 10 5 20 11 WSW 1011,9 23 0,0
24.11.2017 13:00:00 9,9 5,7 11 6 17 9 SW 1011,8 28 0,0
24.11.2017 12:00:00 - - - - - - - - - -
24.11.2017 11:00:00 8,2 6,6 8 4 12 7 SW 1011,0 26 0,0
24.11.2017 10:00:00 7,7 6,0 6 4 9 5 SSW 1010,2 0 0,0
24.11.2017 09:00:00 7,4 5,8 6 4 10 6 SW 1009,6 0 0,0
24.11.2017 08:00:00 7,3 5,6 5 3 11 6 SSW 1008,3 0 0,0
24.11.2017 07:00:00 7,5 5,7 7 4 13 7 W 1007,5 0 0,4
24.11.2017 06:00:00 7,7 5,8 4 2 13 7 E 1006,2 0 1,6
24.11.2017 05:00:00 7,9 5,7 9 5 16 9 W 1007,4 0 4,3
24.11.2017 04:00:00 8,6 6,1 6 3 13 7 WSW 1007,2 0 0,3
24.11.2017 03:00:00 - - - - - - - - - -
24.11.2017 02:00:00 9,1 5,6 5 3 11 6 SSE 1008,4 0 0,0
24.11.2017 01:00:00 9,4 5,5 7 4 14 7 S 1009,0 0 0,0
24.11.2017 00:00:00 10,1 5,4 10 5 22 12 SSW 1009,2 0 0,0
23.11.2017 23:00:00 10,2 5,8 12 7 21 11 SSW 1009,6 0 0,0
23.11.2017 22:00:00 9,6 5,2 10 5 24 13 SSW 1009,6 0 0,0
23.11.2017 21:00:00 10,1 5,0 16 9 27 15 SSW 1009,3 0 0,0
23.11.2017 20:00:00 10,0 4,4 11 6 24 13 S 1008,9 0 0,0
23.11.2017 19:00:00 10,1 4,1 11 6 27 15 SSW 1008,1 0 0,0
23.11.2017 18:00:00 11,2 4,1 17 9 33 18 SW 1007,5 0 0,0
23.11.2017 17:00:00 - - - - - - - - - -
23.11.2017 16:00:00 12,4 7,0 23 12 43 23 SW 1005,5 4 0,0
23.11.2017 15:00:00 12,6 9,8 12 6 47 26 SW 1004,1 0 2,1
23.11.2017 14:00:00 - - - - - - - - - -
23.11.2017 13:00:00 15,4 8,8 29 16 50 27 SSW 1001,9 18 0,0
23.11.2017 12:00:00 - - - - - - - - - -
23.11.2017 11:00:00 14,9 8,1 31 17 57 31 SSW 1000,5 0 0,0
23.11.2017 10:00:00 14,2 6,8 30 16 67 36 S 999,3 0 0,0
23.11.2017 09:00:00 14,7 5,7 36 19 68 37 S 998,0 0 0,0
23.11.2017 08:00:00 14,4 5,1 31 17 61 33 S 997,3 0 0,0
23.11.2017 07:00:00 13,6 4,1 25 14 49 27 S 996,9 0 0,0
23.11.2017 06:00:00 13,9 3,7 28 15 54 29 S 997,5 0 0,0
23.11.2017 05:00:00 13,7 3,1 21 12 42 23 S 997,9 0 0,0
23.11.2017 04:00:00 13,5 2,8 21 11 39 21 S 998,8 0 0,0
23.11.2017 03:00:00 12,9 2,7 20 11 37 20 S 999,2 0 0,0
23.11.2017 02:00:00 - - - - - - - - - -
23.11.2017 01:00:00 13,2 2,2 18 10 37 20 S 999,9 0 0,0
23.11.2017 00:00:00 12,9 2,4 16 9 31 17 S 1000,6 0 0,0
22.11.2017 23:00:00 12,7 2,4 19 11 34 18 S 1001,1 0 0,0
22.11.2017 22:00:00 11,9 2,3 16 9 37 20 S 1001,6 0 0,0
22.11.2017 21:00:00 11,5 2,9 19 10 33 18 SSE 1001,8 0 0,0
22.11.2017 20:00:00 10,8 3,3 10 5 28 15 SE 1002,8 0 0,0
22.11.2017 19:00:00 11,2 3,5 18 10 27 15 S 1003,5 0 0,0
22.11.2017 18:00:00 11,2 3,7 13 7 29 16 SSE 1003,9 0 0,0
22.11.2017 17:00:00 12,0 4,1 19 10 36 19 SSE 1004,3 38 0,0
22.11.2017 16:00:00 13,6 5,1 19 10 32 17 SSE 1005,1 60 0,0
22.11.2017 15:00:00 14,1 5,9 15 8 32 18 SSE 1005,7 60 0,0
22.11.2017 14:00:00 - - - - - - - - - -
22.11.2017 13:00:00 13,5 6,2 18 10 38 20 S 1007,0 60 0,0
22.11.2017 12:00:00 12,6 6,6 21 11 43 23 S 1007,8 60 0,0
22.11.2017 11:00:00 11,5 6,6 16 9 40 22 S 1008,2 60 0,0
22.11.2017 10:00:00 - - - - - - - - - -
22.11.2017 09:00:00 10,9 6,8 18 10 41 22 S 1008,3 0 0,0
22.11.2017 08:00:00 11,0 6,8 18 10 35 19 S 1008,1 0 0,0
22.11.2017 07:00:00 11,0 6,8 18 10 29 16 S 1007,8 0 0,0
22.11.2017 06:00:00 11,2 6,9 17 9 37 20 S 1008,2 0 0,0
22.11.2017 05:00:00 11,3 6,9 21 11 41 22 S 1008,4 0 0,0
22.11.2017 04:00:00 11,4 6,8 21 12 39 21 S 1008,8 0 0,0
22.11.2017 03:00:00 11,3 6,7 22 12 37 20 SSW 1009,2 0 0,0
22.11.2017 02:00:00 11,3 6,8 22 12 44 24 S 1009,3 0 0,0
22.11.2017 01:00:00 - - - - - - - - - -
22.11.2017 00:00:00 10,9 6,8 20 11 35 19 SSW 1010,2 0 0,0
21.11.2017 23:00:00 10,7 6,7 17 9 35 19 SSW 1010,4 0 0,0
21.11.2017 22:00:00 10,7 6,7 16 9 35 19 S 1010,9 0 0,0
21.11.2017 21:00:00 11,0 6,7 18 10 36 19 SSW 1011,3 0 0,0
21.11.2017 20:00:00 10,9 6,9 19 10 31 17 S 1011,4 0 0,0
21.11.2017 19:00:00 10,8 6,9 18 10 35 19 SSW 1012,0 0 0,0
21.11.2017 18:00:00 10,7 7,1 17 9 37 20 SSW 1012,3 0 0,0
21.11.2017 17:00:00 10,7 7,2 18 10 33 18 SSW 1012,4 0 0,0
21.11.2017 16:00:00 10,9 7,5 21 12 37 20 SSW 1012,7 0 0,0
21.11.2017 15:00:00 10,9 7,8 19 11 34 18 SSW 1012,9 0 0,0
21.11.2017 14:00:00 10,5 7,8 18 10 34 18 SSW 1013,3 0 0,0
21.11.2017 13:00:00 10,5 8,6 18 10 35 19 SSW 1013,4 0 0,0
21.11.2017 12:00:00 10,5 9,0 19 10 34 18 SSW 1013,7 0 0,0
21.11.2017 11:00:00 - - - - - - - - - -
21.11.2017 10:00:00 11,4 10,0 16 9 30 16 SSW 1013,5 0 0,8
21.11.2017 09:00:00 11,4 10,0 16 8 25 14 SSW 1013,1 0 0,6
21.11.2017 08:00:00 - - - - - - - - - -
21.11.2017 07:00:00 11,8 10,3 11 6 21 11 SSW 1012,9 0 1,2
21.11.2017 06:00:00 - - - - - - - - - -
21.11.2017 05:00:00 - - - - - - - - - -
21.11.2017 04:00:00 11,3 9,7 10 5 17 9 SSW 1013,2 0 0,1
21.11.2017 03:00:00 - - - - - - - - - -
21.11.2017 02:00:00 11,3 9,6 11 6 20 11 SSW 1013,4 0 0,0
21.11.2017 01:00:00 11,2 9,6 11 6 21 11 SSW 1013,5 0 0,0
21.11.2017 00:00:00 11,0 9,3 14 8 20 11 SSW 1013,4 0 0,0
20.11.2017 23:00:00 10,4 8,7 13 7 28 15 SSW 1013,2 0 0,0
20.11.2017 22:00:00 10,4 8,8 16 9 28 15 SSW 1013,3 0 0,0
20.11.2017 21:00:00 10,2 8,6 16 9 28 15 SSW 1013,4 0 0,6
20.11.2017 20:00:00 10,0 8,3 19 10 33 18 SSW 1013,1 0 0,5
20.11.2017 19:00:00 9,9 8,2 22 12 36 19 SSW 1013,0 0 0,2
20.11.2017 18:00:00 9,6 8,0 16 9 30 16 SSW 1013,2 0 0,4
20.11.2017 17:00:00 9,3 7,6 20 11 32 17 SSW 1013,7 0 0,1
20.11.2017 16:00:00 8,6 6,9 17 9 32 17 SSW 1014,0 0 0,2
20.11.2017 15:00:00 7,9 6,2 16 9 29 16 SSW 1014,7 0 0,3
20.11.2017 14:00:00 - - - - - - - - - -
20.11.2017 13:00:00 6,4 4,6 17 9 29 16 S 1016,9 0 1,5
20.11.2017 12:00:00 - - - - - - - - - -
20.11.2017 11:00:00 5,2 2,8 11 6 20 11 S 1018,9 0 0,3
20.11.2017 10:00:00 4,6 2,0 10 6 18 10 S 1019,7 0 0,0
20.11.2017 09:00:00 4,6 1,1 9 5 15 8 SSE 1020,3 0 0,1
20.11.2017 08:00:00 4,6 0,8 9 5 17 9 SSW 1021,4 0 0,0
20.11.2017 07:00:00 4,3 0,8 7 4 13 7 SSW 1021,5 0 0,0
20.11.2017 06:00:00 4,2 0,7 9 5 18 10 SSW 1021,6 0 0,0
20.11.2017 05:00:00 4,0 0,8 10 5 15 8 SSW 1021,8 0 0,0
20.11.2017 04:00:00 - - - - - - - - - -
20.11.2017 03:00:00 3,7 0,9 8 4 12 6 SSW 1022,7 0 0,0
20.11.2017 02:00:00 3,7 1,0 8 4 13 7 SSW 1023,2 0 0,0
20.11.2017 01:00:00 3,6 1,0 11 6 14 8 SW 1023,8 0 0,0
20.11.2017 00:00:00 3,0 0,5 8 4 13 7 SSW 1024,0 0 0,0
19.11.2017 23:00:00 3,4 0,7 9 5 15 8 SSW 1023,8 0 0,0
19.11.2017 22:00:00 - - - - - - - - - -
19.11.2017 21:00:00 4,5 1,4 11 6 21 11 SW 1023,4 0 0,0
19.11.2017 20:00:00 5,4 1,9 9 5 14 8 SW 1023,2 0 0,0
19.11.2017 19:00:00 5,9 1,8 7 4 19 10 WSW 1022,9 0 0,0
19.11.2017 18:00:00 6,8 2,4 13 7 21 11 WSW 1022,4 0 0,0
19.11.2017 17:00:00 6,8 2,9 8 4 21 11 WSW 1022,1 20 0,0
19.11.2017 16:00:00 7,2 2,4 18 10 39 21 W 1022,0 16 0,1
19.11.2017 15:00:00 9,1 3,6 22 12 33 18 W 1021,5 54 0,0
19.11.2017 14:00:00 7,8 3,5 9 5 29 15 WSW 1021,5 16 0,1
19.11.2017 13:00:00 7,5 3,0 22 12 34 19 W 1021,6 13 0,0
19.11.2017 12:00:00 7,2 3,4 14 8 29 16 WSW 1021,2 32 0,0
19.11.2017 11:00:00 - - - - - - - - - -
19.11.2017 10:00:00 4,6 1,6 10 6 16 8 SSW 1020,3 12 0,3
19.11.2017 09:00:00 4,6 0,7 7 4 16 9 SW 1019,9 0 0,0
19.11.2017 08:00:00 4,5 1,0 8 4 13 7 SW 1019,3 0 0,0
19.11.2017 07:00:00 4,4 0,3 11 6 13 7 SW 1018,9 0 0,0
19.11.2017 06:00:00 5,0 0,3 8 5 16 9 SW 1018,5 0 0,0
19.11.2017 05:00:00 5,9 0,2 9 5 15 8 WSW 1018,2 0 0,0
19.11.2017 04:00:00 - - - - - - - - - -
19.11.2017 03:00:00 6,9 -1,0 14 8 29 16 W 1017,9 0 0,0
19.11.2017 02:00:00 7,1 0,4 14 8 32 17 W 1017,6 0 0,0
19.11.2017 01:00:00 - - - - - - - - - -
19.11.2017 00:00:00 8,0 5,1 11 6 22 12 W 1017,6 0 0,0
18.11.2017 23:00:00 7,9 5,0 11 6 22 12 SW 1017,6 0 0,0
18.11.2017 22:00:00 7,7 4,9 14 8 23 12 SW 1017,7 0 0,0
18.11.2017 21:00:00 7,6 4,9 12 7 21 11 SW 1018,1 0 0,0
18.11.2017 20:00:00 - - - - - - - - - -
18.11.2017 19:00:00 8,0 4,8 11 6 23 13 SW 1018,9 0 0,0
18.11.2017 18:00:00 8,4 4,9 13 7 24 13 SW 1019,3 0 0,0
18.11.2017 17:00:00 8,6 4,3 16 9 32 17 SW 1019,6 0 0,0

tt = Température de l'air
td = dewpoint
ff = Vitesse du vent
fx = gusts
dd = Direction du vent
ppp = reduced air pressure
sd = Ensoleillement
rr = Quantités de précipitations

stations d'obs. à proximité